Time;durP1;ratioP1;P1;durP2;ratioP2;P2;SDS_P1;SDS_P2;PMS_P1;PMS_P2;Temp;Humidity;BMP_temperature;BMP_pressure;BME280_temperature;BME280_humidity;BME280_pressure;Samples;Min_cycle;Max_cycle;Signal;HPM_P1;HPM_P2
2022/04/13 00:01:46;;;;;;;;;;;23.80;39.20;;;;;;1495011;79;728;-66
2022/04/13 00:03:48;;;;;;;;;;;23.90;39.20;;;;;;1494579;79;692;-64
2022/04/13 00:05:50;;;;;;;;;;;23.80;39.10;;;;;;1494995;79;677;-65
2022/04/13 00:07:52;;;;;;;;;;;23.90;39.20;;;;;;1494499;78;774;-63
2022/04/13 00:09:54;;;;;;;;;;;23.90;39.20;;;;;;1489898;79;1202;-64
2022/04/13 00:11:55;;;;;;;;;;;23.90;39.20;;;;;;1489838;79;648;-63
2022/04/13 00:13:57;;;;;;;;;;;23.90;39.20;;;;;;1492964;79;1939;-64
2022/04/13 00:15:59;;;;;;;;;;;23.90;39.20;;;;;;1495010;79;700;-64
2022/04/13 00:18:08;;;;;;;;;;;23.90;39.30;;;;;;1495049;79;704;-63
2022/04/13 00:20:11;;;;;;;;;;;23.90;39.30;;;;;;1494762;78;1463;-64
2022/04/13 00:22:13;;;;;;;;;;;23.90;39.40;;;;;;1493807;79;731;-65
2022/04/13 00:24:15;;;;;;;;;;;23.70;39.40;;;;;;1489743;80;664;-65
2022/04/13 00:26:16;;;;;;;;;;;23.70;39.40;;;;;;1493530;79;693;-63
2022/04/13 00:28:18;;;;;;;;;;;23.70;39.60;;;;;;1495018;79;659;-65
2022/04/13 00:30:20;;;;;;;;;;;23.70;39.60;;;;;;1494908;79;1200;-65
2022/04/13 00:32:22;;;;;;;;;;;23.70;39.70;;;;;;1495022;79;678;-65
2022/04/13 00:34:24;;;;;;;;;;;23.60;39.70;;;;;;1494264;79;1947;-64
2022/04/13 00:36:26;;;;;;;;;;;23.70;39.70;;;;;;1492178;78;677;-65
2022/04/13 00:38:28;;;;;;;;;;;23.60;39.70;;;;;;1501182;78;790;-62
2022/04/13 00:40:30;;;;;;;;;;;23.60;39.70;;;;;;1493731;78;1141;-62
2022/04/13 00:42:32;;;;;;;;;;;23.70;39.90;;;;;;1502324;78;642;-62
2022/04/13 00:44:34;;;;;;;;;;;23.60;39.80;;;;;;1497733;77;707;-62
2022/04/13 00:46:36;;;;;;;;;;;23.70;39.90;;;;;;1490688;78;934;-66
2022/04/13 00:48:39;;;;;;;;;;;23.70;40.00;;;;;;1489272;79;785;-65
2022/04/13 00:50:41;;;;;;;;;;;23.70;39.90;;;;;;1494989;79;1160;-65
2022/04/13 00:52:44;;;;;;;;;;;23.70;40.00;;;;;;1494996;79;554;-64
2022/04/13 00:54:47;;;;;;;;;;;23.70;40.00;;;;;;1491574;78;1912;-65
2022/04/13 00:56:49;;;;;;;;;;;23.60;39.80;;;;;;1494884;79;662;-64
2022/04/13 00:58:53;;;;;;;;;;;23.60;39.90;;;;;;1495023;78;872;-65
2022/04/13 01:00:55;;;;;;;;;;;23.70;40.00;;;;;;1494847;79;1145;-64
2022/04/13 01:02:57;;;;;;;;;;;23.60;39.90;;;;;;1488460;79;768;-64
2022/04/13 01:05:00;;;;;;;;;;;23.60;40.00;;;;;;1494685;79;695;-63
2022/04/13 01:07:02;;;;;;;;;;;23.60;39.90;;;;;;1494388;79;670;-65
2022/04/13 01:09:04;;;;;;;;;;;23.60;39.90;;;;;;1494797;79;550;-64
2022/04/13 01:11:06;;;;;;;;;;;23.60;40.00;;;;;;1492817;78;1113;-64
2022/04/13 01:13:08;;;;;;;;;;;23.60;40.00;;;;;;1489861;80;667;-64
2022/04/13 01:15:10;;;;;;;;;;;23.50;40.00;;;;;;1489788;80;1942;-67
2022/04/13 01:17:12;;;;;;;;;;;23.60;40.00;;;;;;1491685;79;657;-65
2022/04/13 01:19:16;;;;;;;;;;;23.60;40.00;;;;;;1498119;78;763;-64
2022/04/13 01:21:20;;;;;;;;;;;23.50;40.00;;;;;;1516734;78;1155;-65
2022/04/13 01:23:21;;;;;;;;;;;23.50;40.10;;;;;;1496745;78;1909;-66
2022/04/13 01:25:23;;;;;;;;;;;23.60;40.10;;;;;;1493357;79;738;-65
2022/04/13 01:27:26;;;;;;;;;;;23.60;40.10;;;;;;1491080;79;739;-65
2022/04/13 01:29:28;;;;;;;;;;;23.50;40.10;;;;;;1489598;79;669;-63
2022/04/13 01:31:30;;;;;;;;;;;23.50;40.10;;;;;;1492915;79;1173;-64
2022/04/13 01:33:32;;;;;;;;;;;23.50;40.20;;;;;;1493423;78;771;-64
2022/04/13 01:35:34;;;;;;;;;;;23.60;40.20;;;;;;1493386;79;1918;-64
2022/04/13 01:37:36;;;;;;;;;;;23.50;40.20;;;;;;1493540;79;779;-67
2022/04/13 01:39:38;;;;;;;;;;;23.60;40.20;;;;;;1494859;79;846;-66
2022/04/13 01:41:40;;;;;;;;;;;23.50;40.20;;;;;;1494969;79;1114;-63
2022/04/13 01:43:41;;;;;;;;;;;23.50;40.20;;;;;;1495021;79;686;-66
2022/04/13 01:45:43;;;;;;;;;;;23.50;40.20;;;;;;1492715;79;759;-63
2022/04/13 01:47:45;;;;;;;;;;;23.50;40.30;;;;;;1494928;79;869;-64
2022/04/13 01:49:47;;;;;;;;;;;23.50;40.20;;;;;;1494853;79;1169;-63
2022/04/13 01:51:49;;;;;;;;;;;23.60;40.30;;;;;;1494219;79;797;-64
2022/04/13 01:53:51;;;;;;;;;;;23.50;40.30;;;;;;1489882;80;747;-64
2022/04/13 01:55:57;;;;;;;;;;;23.50;40.30;;;;;;1492426;79;1934;-66
2022/04/13 01:57:56;;;;;;;;;;;23.50;40.30;;;;;;1493520;79;1574;-64
2022/04/13 01:59:58;;;;;;;;;;;23.50;40.40;;;;;;1494854;79;1226;-64
2022/04/13 02:02:04;;;;;;;;;;;23.50;40.40;;;;;;1494259;79;759;-64
2022/04/13 02:04:04;;;;;;;;;;;23.50;40.40;;;;;;1491250;79;2100;-65
2022/04/13 02:06:06;;;;;;;;;;;23.50;40.40;;;;;;1494944;79;655;-64
2022/04/13 02:08:07;;;;;;;;;;;23.50;40.40;;;;;;1494944;79;659;-63
2022/04/13 02:10:10;;;;;;;;;;;23.50;40.50;;;;;;1495022;79;1137;-64
2022/04/13 02:12:12;;;;;;;;;;;23.50;40.50;;;;;;1494890;79;598;-64
2022/04/13 02:14:13;;;;;;;;;;;23.60;40.50;;;;;;1494322;79;669;-64
2022/04/13 02:16:15;;;;;;;;;;;23.50;40.50;;;;;;1494857;79;1974;-64
2022/04/13 02:18:17;;;;;;;;;;;23.50;40.60;;;;;;1494962;79;663;-65
2022/04/13 02:20:19;;;;;;;;;;;23.60;40.60;;;;;;1494290;79;1144;-64
2022/04/13 02:22:21;;;;;;;;;;;23.50;40.60;;;;;;1493920;79;748;-65
2022/04/13 02:24:23;;;;;;;;;;;23.50;40.60;;;;;;1489703;80;683;-63
2022/04/13 02:26:25;;;;;;;;;;;23.50;40.60;;;;;;1491927;79;688;-64
2022/04/13 02:28:26;;;;;;;;;;;23.50;40.70;;;;;;1489818;80;699;-63
2022/04/13 02:30:28;;;;;;;;;;;23.60;40.70;;;;;;1489815;80;1082;-63
2022/04/13 02:32:30;;;;;;;;;;;23.60;40.70;;;;;;1489617;79;740;-63
2022/04/13 02:34:32;;;;;;;;;;;23.60;40.70;;;;;;1494958;79;647;-65
2022/04/13 02:36:34;;;;;;;;;;;23.80;40.80;;;;;;1493161;78;1936;-64
2022/04/13 02:38:36;;;;;;;;;;;23.70;40.90;;;;;;1489757;80;715;-66
2022/04/13 02:40:38;;;;;;;;;;;23.70;41.30;;;;;;1490155;79;1152;-61
2022/04/13 02:42:40;;;;;;;;;;;23.70;41.60;;;;;;1495003;79;723;-61
2022/04/13 02:44:42;;;;;;;;;;;23.60;41.80;;;;;;1494367;79;678;-64
2022/04/13 02:46:44;;;;;;;;;;;23.50;42.10;;;;;;1494939;79;726;-63
2022/04/13 02:48:46;;;;;;;;;;;23.50;42.30;;;;;;1495014;79;769;-63
2022/04/13 02:50:52;;;;;;;;;;;23.40;42.30;;;;;;1494987;79;1145;-63
2022/04/13 02:52:54;;;;;;;;;;;23.50;42.40;;;;;;1493587;79;1335;-64
2022/04/13 02:54:55;;;;;;;;;;;23.50;42.50;;;;;;1493417;79;1930;-63
2022/04/13 02:56:57;;;;;;;;;;;23.40;42.40;;;;;;1495063;79;683;-64
2022/04/13 02:58:59;;;;;;;;;;;23.50;42.60;;;;;;1494979;79;753;-64
2022/04/13 03:01:03;;;;;;;;;;;23.50;42.60;;;;;;1495067;79;1165;-64
2022/04/13 03:03:05;;;;;;;;;;;23.50;42.70;;;;;;1493470;79;1660;-64
2022/04/13 03:05:07;;;;;;;;;;;23.40;42.50;;;;;;1494156;79;963;-62
2022/04/13 03:07:11;;;;;;;;;;;23.50;42.80;;;;;;1494766;79;677;-64
2022/04/13 03:09:13;;;;;;;;;;;23.50;42.80;;;;;;1494373;79;1296;-66
2022/04/13 03:11:16;;;;;;;;;;;23.50;42.90;;;;;;1494865;79;1124;-64
2022/04/13 03:13:18;;;;;;;;;;;23.50;42.80;;;;;;1494028;79;706;-63
2022/04/13 03:15:22;;;;;;;;;;;23.60;42.80;;;;;;1494894;79;1930;-64
2022/04/13 03:17:24;;;;;;;;;;;23.60;42.70;;;;;;1494823;79;1744;-63
2022/04/13 03:19:26;;;;;;;;;;;23.50;42.60;;;;;;1495043;79;648;-64
2022/04/13 03:21:28;;;;;;;;;;;23.60;42.70;;;;;;1494159;79;1137;-64
2022/04/13 03:23:29;;;;;;;;;;;23.60;42.60;;;;;;1493892;79;743;-64
2022/04/13 03:25:33;;;;;;;;;;;23.60;42.70;;;;;;1493439;79;679;-63
2022/04/13 03:27:37;;;;;;;;;;;23.60;42.80;;;;;;1490123;79;690;-62
2022/04/13 03:29:38;;;;;;;;;;;23.60;42.80;;;;;;1489776;80;1384;-62
2022/04/13 03:31:40;;;;;;;;;;;23.60;42.70;;;;;;1489850;80;1111;-62
2022/04/13 03:33:42;;;;;;;;;;;23.70;42.80;;;;;;1489907;79;738;-62
2022/04/13 03:35:44;;;;;;;;;;;23.70;42.80;;;;;;1492667;79;1958;-64
2022/04/13 03:37:46;;;;;;;;;;;23.60;42.60;;;;;;1490289;79;762;-62
2022/04/13 03:39:47;;;;;;;;;;;23.70;42.70;;;;;;1489949;80;1144;-62
2022/04/13 03:41:50;;;;;;;;;;;23.60;42.60;;;;;;1489838;80;655;-62
2022/04/13 03:43:52;;;;;;;;;;;23.60;42.50;;;;;;1490662;79;776;-63
2022/04/13 03:45:53;;;;;;;;;;;23.60;42.50;;;;;;1494974;79;720;-65
2022/04/13 03:47:55;;;;;;;;;;;23.60;42.50;;;;;;1494985;79;720;-64
2022/04/13 03:49:57;;;;;;;;;;;23.70;42.60;;;;;;1494991;78;1146;-63
2022/04/13 03:51:59;;;;;;;;;;;23.70;42.70;;;;;;1494634;79;666;-62
2022/04/13 03:54:01;;;;;;;;;;;23.70;42.60;;;;;;1494970;79;675;-63
2022/04/13 03:56:03;;;;;;;;;;;23.60;42.60;;;;;;1494222;79;1926;-65
2022/04/13 03:58:05;;;;;;;;;;;23.60;42.60;;;;;;1495003;79;666;-62
2022/04/13 04:00:07;;;;;;;;;;;23.60;42.50;;;;;;1494882;79;1178;-63
2022/04/13 04:02:09;;;;;;;;;;;23.60;42.50;;;;;;1494926;79;664;-63
2022/04/13 04:04:11;;;;;;;;;;;23.70;42.60;;;;;;1494426;79;703;-64
2022/04/13 04:06:13;;;;;;;;;;;23.60;42.40;;;;;;1495001;79;690;-63
2022/04/13 04:08:15;;;;;;;;;;;23.60;42.40;;;;;;1495008;79;763;-63
2022/04/13 04:10:17;;;;;;;;;;;23.70;42.60;;;;;;1495017;79;1140;-61
2022/04/13 04:12:19;;;;;;;;;;;23.70;42.70;;;;;;1494380;79;781;-62
2022/04/13 04:14:20;;;;;;;;;;;23.60;42.40;;;;;;1491274;79;733;-62
2022/04/13 04:16:22;;;;;;;;;;;23.60;42.40;;;;;;1489806;80;1942;-62
2022/04/13 04:18:24;;;;;;;;;;;23.60;42.50;;;;;;1489847;80;676;-61
2022/04/13 04:20:26;;;;;;;;;;;23.70;42.60;;;;;;1490358;79;1132;-61
2022/04/13 04:22:28;;;;;;;;;;;23.70;42.60;;;;;;1495086;78;679;-66
2022/04/13 04:24:30;;;;;;;;;;;23.70;42.60;;;;;;1494928;78;671;-65
2022/04/13 04:26:32;;;;;;;;;;;23.70;42.60;;;;;;1492308;79;725;-65
2022/04/13 04:28:34;;;;;;;;;;;23.70;42.60;;;;;;1489826;79;687;-65
2022/04/13 04:30:36;;;;;;;;;;;23.70;42.70;;;;;;1489822;79;1145;-64
2022/04/13 04:32:38;;;;;;;;;;;23.70;42.60;;;;;;1489900;80;666;-63
2022/04/13 04:34:40;;;;;;;;;;;23.70;42.70;;;;;;1492106;79;743;-64
2022/04/13 04:36:42;;;;;;;;;;;23.70;42.70;;;;;;1492893;79;1942;-64
2022/04/13 04:38:44;;;;;;;;;;;23.70;42.70;;;;;;1489768;80;842;-64
2022/04/13 04:40:46;;;;;;;;;;;23.70;42.70;;;;;;1489969;80;1195;-63
2022/04/13 04:42:48;;;;;;;;;;;23.70;42.70;;;;;;1491925;79;677;-63
2022/04/13 04:44:51;;;;;;;;;;;23.70;42.70;;;;;;1494980;78;670;-65
2022/04/13 04:46:53;;;;;;;;;;;23.70;42.60;;;;;;1494735;79;1892;-65
2022/04/13 04:48:55;;;;;;;;;;;23.70;42.70;;;;;;1495156;79;672;-65
2022/04/13 04:50:57;;;;;;;;;;;23.70;42.60;;;;;;1494278;79;1180;-66
2022/04/13 04:52:59;;;;;;;;;;;23.70;42.60;;;;;;1495057;79;671;-65
2022/04/13 04:55:01;;;;;;;;;;;23.70;42.60;;;;;;1494393;79;665;-66
2022/04/13 04:57:03;;;;;;;;;;;23.70;42.60;;;;;;1494967;79;1939;-67
2022/04/13 04:59:05;;;;;;;;;;;23.70;42.60;;;;;;1495012;79;675;-68
2022/04/13 05:01:07;;;;;;;;;;;23.70;42.60;;;;;;1494882;79;1168;-65
2022/04/13 05:03:08;;;;;;;;;;;23.70;42.70;;;;;;1495037;79;737;-70
2022/04/13 05:05:10;;;;;;;;;;;23.70;42.70;;;;;;1493392;79;654;-66
2022/04/13 05:07:12;;;;;;;;;;;23.70;42.60;;;;;;1494213;79;691;-66
2022/04/13 05:09:17;;;;;;;;;;;23.70;42.70;;;;;;1494644;79;652;-65
2022/04/13 05:11:18;;;;;;;;;;;23.70;42.60;;;;;;1493793;79;1677;-63
2022/04/13 05:13:20;;;;;;;;;;;23.70;42.60;;;;;;1494651;79;744;-63
2022/04/13 05:15:22;;;;;;;;;;;23.70;42.60;;;;;;1493506;79;663;-65
2022/04/13 05:17:24;;;;;;;;;;;23.70;42.60;;;;;;1493576;79;1947;-65
2022/04/13 05:19:25;;;;;;;;;;;23.70;42.60;;;;;;1493696;79;733;-65
2022/04/13 05:21:27;;;;;;;;;;;23.70;42.90;;;;;;1493958;79;1132;-64
2022/04/13 05:23:29;;;;;;;;;;;23.70;42.90;;;;;;1494993;78;644;-65
2022/04/13 05:25:31;;;;;;;;;;;23.70;42.90;;;;;;1493948;79;632;-66
2022/04/13 05:27:33;;;;;;;;;;;23.80;42.90;;;;;;1490118;79;798;-67
2022/04/13 05:29:35;;;;;;;;;;;23.80;42.90;;;;;;1489851;80;654;-64
2022/04/13 05:31:37;;;;;;;;;;;23.80;42.90;;;;;;1489691;80;1125;-61
2022/04/13 05:33:39;;;;;;;;;;;23.80;42.80;;;;;;1492236;79;671;-63
2022/04/13 05:35:41;;;;;;;;;;;23.80;42.80;;;;;;1494866;79;743;-64
2022/04/13 05:37:43;;;;;;;;;;;23.80;42.80;;;;;;1496486;78;1906;-64
2022/04/13 05:39:45;;;;;;;;;;;23.80;42.80;;;;;;1498719;78;708;-63
2022/04/13 05:41:47;;;;;;;;;;;23.70;42.90;;;;;;1498146;78;661;-64
2022/04/13 05:43:49;;;;;;;;;;;23.70;42.80;;;;;;1499131;78;721;-65
2022/04/13 05:45:51;;;;;;;;;;;23.80;42.80;;;;;;1498344;78;883;-66
2022/04/13 05:47:53;;;;;;;;;;;23.80;42.80;;;;;;1498604;78;722;-64
2022/04/13 05:49:55;;;;;;;;;;;23.80;43.00;;;;;;1498650;78;1140;-65
2022/04/13 05:51:57;;;;;;;;;;;23.80;43.00;;;;;;1498150;78;771;-63
2022/04/13 05:53:58;;;;;;;;;;;23.90;43.00;;;;;;1496361;78;685;-63
2022/04/13 05:56:00;;;;;;;;;;;23.90;43.00;;;;;;1496740;78;1942;-65
2022/04/13 05:58:02;;;;;;;;;;;23.90;43.10;;;;;;1499504;78;726;-65
2022/04/13 06:00:05;;;;;;;;;;;23.80;42.80;;;;;;1499036;78;1151;-65
2022/04/13 06:02:07;;;;;;;;;;;23.90;42.80;;;;;;1499120;78;798;-63
2022/04/13 06:04:09;;;;;;;;;;;23.90;42.80;;;;;;1498620;78;691;-64
2022/04/13 06:06:11;;;;;;;;;;;23.90;42.70;;;;;;1498650;78;909;-68
2022/04/13 06:08:13;;;;;;;;;;;23.80;42.50;;;;;;1499108;78;705;-63
2022/04/13 06:10:17;;;;;;;;;;;23.80;42.40;;;;;;1499139;78;1159;-64
2022/04/13 06:12:25;;;;;;;;;;;23.80;42.40;;;;;;1498678;78;1648;-64
2022/04/13 06:14:26;;;;;;;;;;;23.80;42.40;;;;;;1497993;78;754;-67
2022/04/13 06:16:28;;;;;;;;;;;23.80;42.40;;;;;;1499142;78;1922;-64
2022/04/13 06:18:30;;;;;;;;;;;23.80;42.40;;;;;;1498850;78;712;-64
2022/04/13 06:20:32;;;;;;;;;;;23.80;42.40;;;;;;1499281;78;1163;-65
2022/04/13 06:22:35;;;;;;;;;;;23.80;42.30;;;;;;1498966;78;728;-65
2022/04/13 06:24:37;;;;;;;;;;;23.80;42.30;;;;;;1504721;78;1822;-65
2022/04/13 06:26:39;;;;;;;;;;;23.80;42.30;;;;;;1492740;78;695;-64
2022/04/13 06:28:41;;;;;;;;;;;23.80;42.30;;;;;;1489972;79;736;-65
2022/04/13 06:30:47;;;;;;;;;;;23.70;42.20;;;;;;1489856;80;1157;-64
2022/04/13 06:32:47;;;;;;;;;;;23.70;42.10;;;;;;1489306;80;1586;-62
2022/04/13 06:34:48;;;;;;;;;;;23.70;42.10;;;;;;1497357;78;659;-64
2022/04/13 06:36:50;;;;;;;;;;;23.70;42.00;;;;;;1493763;78;1954;-64
2022/04/13 06:38:52;;;;;;;;;;;23.80;42.00;;;;;;1498325;78;731;-66
2022/04/13 06:40:55;;;;;;;;;;;23.70;42.00;;;;;;1516006;74;222678;-58
2022/04/13 06:42:57;;;;;;;;;;;23.80;41.90;;;;;;1573756;74;756;-58
2022/04/13 06:45:00;;;;;;;;;;;23.80;41.90;;;;;;1569965;74;792;-59
2022/04/13 06:47:03;;;;;;;;;;;23.80;41.90;;;;;;1574432;74;690;-58
2022/04/13 06:49:05;;;;;;;;;;;23.80;41.80;;;;;;1574369;74;1042;-58
2022/04/13 06:51:06;;;;;;;;;;;23.80;41.80;;;;;;1571747;74;740;-58
2022/04/13 06:53:08;;;;;;;;;;;23.70;41.80;;;;;;1573435;74;886;-59
2022/04/13 06:55:10;;;;;;;;;;;23.80;41.80;;;;;;1562280;74;739;-58
2022/04/13 06:57:12;;;;;;;;;;;23.70;41.80;;;;;;1568911;74;1926;-59
2022/04/13 06:59:14;;;;;;;;;;;23.80;41.80;;;;;;1560883;75;761;-58
2022/04/13 07:01:16;;;;;;;;;;;23.80;41.80;;;;;;1565916;74;754;-58
2022/04/13 07:03:18;;;;;;;;;;;23.80;41.70;;;;;;1560539;75;860;-58
2022/04/13 07:05:20;;;;;;;;;;;23.80;41.70;;;;;;1564580;74;916;-59
2022/04/13 07:07:21;;;;;;;;;;;23.80;41.70;;;;;;1566454;74;739;-59
2022/04/13 07:09:23;;;;;;;;;;;23.90;41.80;;;;;;1560929;74;914;-61
2022/04/13 07:11:25;;;;;;;;;;;23.80;41.60;;;;;;1560100;74;757;-61
2022/04/13 07:13:27;;;;;;;;;;;23.90;41.90;;;;;;1555807;76;821;-61
2022/04/13 07:15:29;;;;;;;;;;;23.90;41.60;;;;;;1551875;76;742;-64
2022/04/13 07:17:31;;;;;;;;;;;23.90;41.80;;;;;;1562981;76;1930;-62
2022/04/13 07:19:33;;;;;;;;;;;24.00;41.40;;;;;;1551164;76;793;-62
2022/04/13 07:21:34;;;;;;;;;;;24.00;41.30;;;;;;1563007;76;693;-64
2022/04/13 07:23:36;;;;;;;;;;;24.10;41.30;;;;;;1564916;76;716;-64
2022/04/13 07:25:38;;;;;;;;;;;24.20;40.90;;;;;;1564844;76;787;-64
2022/04/13 07:27:40;;;;;;;;;;;24.30;41.20;;;;;;1564863;76;1158;-64
2022/04/13 07:29:42;;;;;;;;;;;24.40;40.80;;;;;;1565069;76;693;-64
2022/04/13 07:31:44;;;;;;;;;;;24.60;40.30;;;;;;1565133;76;727;-64
2022/04/13 07:33:46;;;;;;;;;;;24.70;40.00;;;;;;1564946;76;738;-63
2022/04/13 07:35:48;;;;;;;;;;;24.70;39.40;;;;;;1564725;76;819;-63
2022/04/13 07:37:50;;;;;;;;;;;24.80;39.00;;;;;;1564709;76;1969;-63
2022/04/13 07:39:53;;;;;;;;;;;24.80;38.50;;;;;;1564998;76;741;-64
2022/04/13 07:41:55;;;;;;;;;;;24.80;38.40;;;;;;1564853;76;1344;-63
2022/04/13 07:43:57;;;;;;;;;;;24.80;38.30;;;;;;1564933;76;781;-63
2022/04/13 07:45:59;;;;;;;;;;;24.90;38.10;;;;;;1564558;76;703;-63
2022/04/13 07:48:01;;;;;;;;;;;24.80;38.00;;;;;;1563946;74;762;-60
2022/04/13 07:50:03;;;;;;;;;;;24.80;37.70;;;;;;1558402;76;739;-60
2022/04/13 07:52:05;;;;;;;;;;;24.80;37.60;;;;;;1538753;76;683;-60
2022/04/13 07:54:07;;;;;;;;;;;24.80;37.60;;;;;;1538682;76;690;-61
2022/04/13 07:56:09;;;;;;;;;;;24.90;37.60;;;;;;1559132;76;757;-60
2022/04/13 07:58:11;;;;;;;;;;;25.00;37.50;;;;;;1564956;76;1944;-60
2022/04/13 08:00:13;;;;;;;;;;;24.90;37.40;;;;;;1564881;76;748;-59
2022/04/13 08:02:16;;;;;;;;;;;25.00;37.30;;;;;;1565044;76;691;-59
2022/04/13 08:04:18;;;;;;;;;;;25.00;37.20;;;;;;1564553;76;1806;-60
2022/04/13 08:06:20;;;;;;;;;;;25.10;37.20;;;;;;1560536;76;786;-60
2022/04/13 08:08:22;;;;;;;;;;;25.00;37.10;;;;;;1561252;75;761;-60
2022/04/13 08:10:24;;;;;;;;;;;25.10;37.10;;;;;;1564213;75;677;-61
2022/04/13 08:12:29;;;;;;;;;;;25.10;37.00;;;;;;1564653;75;705;-61
2022/04/13 08:14:31;;;;;;;;;;;25.10;37.00;;;;;;1558641;76;700;-61
2022/04/13 08:16:33;;;;;;;;;;;25.10;37.00;;;;;;1564800;76;832;-62
2022/04/13 08:18:35;;;;;;;;;;;25.10;36.90;;;;;;1564861;76;1942;-61
2022/04/13 08:20:38;;;;;;;;;;;25.00;36.80;;;;;;1564637;75;874;-61
2022/04/13 08:22:40;;;;;;;;;;;25.10;36.80;;;;;;1561505;75;755;-60
2022/04/13 08:24:42;;;;;;;;;;;25.10;36.80;;;;;;1559990;74;854;-61
2022/04/13 08:26:44;;;;;;;;;;;25.10;36.70;;;;;;1560965;74;787;-61
2022/04/13 08:28:46;;;;;;;;;;;25.20;36.50;;;;;;1562040;76;682;-60
2022/04/13 08:30:48;;;;;;;;;;;25.10;36.50;;;;;;1563360;74;830;-60
2022/04/13 08:32:49;;;;;;;;;;;25.10;36.60;;;;;;1561537;75;941;-60
2022/04/13 08:34:54;;;;;;;;;;;25.10;36.50;;;;;;1562920;75;927;-60
2022/04/13 08:36:56;;;;;;;;;;;25.10;36.40;;;;;;1558927;75;731;-60
2022/04/13 08:38:58;;;;;;;;;;;25.10;36.20;;;;;;1560787;74;1932;-60
2022/04/13 08:41:03;;;;;;;;;;;25.10;36.30;;;;;;1559834;74;859;-60
2022/04/13 08:43:06;;;;;;;;;;;25.10;36.30;;;;;;1558745;75;787;-59
2022/04/13 08:45:19;;;;;;;;;;;25.10;36.40;;;;;;1561114;76;1824;-60
2022/04/13 08:47:21;;;;;;;;;;;25.00;36.40;;;;;;1564273;76;1688;-59
2022/04/13 08:49:23;;;;;;;;;;;25.10;36.40;;;;;;1564834;76;746;-59
2022/04/13 08:51:25;;;;;;;;;;;25.20;36.40;;;;;;1564031;75;669;-60
2022/04/13 08:53:30;;;;;;;;;;;25.10;35.70;;;;;;1563752;76;688;-60
2022/04/13 08:55:32;;;;;;;;;;;25.00;35.30;;;;;;1563822;76;676;-59
2022/04/13 08:57:38;;;;;;;;;;;25.00;35.90;;;;;;1563853;75;1916;-59
2022/04/13 08:59:44;;;;;;;;;;;25.00;36.80;;;;;;1567314;74;772;-60
2022/04/13 09:01:47;;;;;;;;;;;25.00;36.40;;;;;;1563980;74;975;-59
2022/04/13 09:03:50;;;;;;;;;;;25.00;36.40;;;;;;1574066;74;1486;-61
2022/04/13 09:05:53;;;;;;;;;;;25.10;36.50;;;;;;1572205;74;1226;-60
2022/04/13 09:08:14;;;;;;;;;;;25.10;36.40;;;;;;1568913;74;653;-66
2022/04/13 09:10:20;;;;;;;;;;;25.10;36.50;;;;;;1567924;74;1698;-65
2022/04/13 09:12:22;;;;;;;;;;;25.00;36.20;;;;;;1561916;76;668;-70
2022/04/13 09:14:24;;;;;;;;;;;25.00;35.90;;;;;;1561825;74;713;-68
2022/04/13 09:16:26;;;;;;;;;;;25.00;35.60;;;;;;1568362;74;689;-74
2022/04/13 09:18:28;;;;;;;;;;;25.00;35.60;;;;;;1567047;74;1946;-69
2022/04/13 09:20:30;;;;;;;;;;;25.00;35.20;;;;;;1573030;74;646;-69
2022/04/13 09:22:32;;;;;;;;;;;24.90;35.30;;;;;;1572277;74;698;-70
2022/04/13 09:24:36;;;;;;;;;;;25.00;35.30;;;;;;1565213;74;732;-62
2022/04/13 09:26:37;;;;;;;;;;;24.90;35.00;;;;;;1572731;74;1458;-67
2022/04/13 09:28:39;;;;;;;;;;;24.90;34.10;;;;;;1562909;74;769;-68
2022/04/13 09:30:41;;;;;;;;;;;24.90;34.40;;;;;;1564080;76;755;-68
2022/04/13 09:32:43;;;;;;;;;;;24.90;34.70;;;;;;1563879;76;748;-67
2022/04/13 09:34:45;;;;;;;;;;;24.80;34.80;;;;;;1562391;75;751;-66
2022/04/13 09:36:47;;;;;;;;;;;24.80;34.90;;;;;;1555460;75;826;-67
2022/04/13 09:38:52;;;;;;;;;;;24.80;34.30;;;;;;1564100;76;1958;-67
2022/04/13 09:40:53;;;;;;;;;;;24.80;34.90;;;;;;1563876;74;974;-64
2022/04/13 09:42:57;;;;;;;;;;;24.80;34.80;;;;;;1560516;74;786;-62
2022/04/13 09:45:04;;;;;;;;;;;24.80;34.80;;;;;;1562455;74;914;-66
2022/04/13 09:47:07;;;;;;;;;;;24.80;34.50;;;;;;1561958;76;1564;-65
2022/04/13 09:49:09;;;;;;;;;;;24.80;34.70;;;;;;1560660;74;754;-75
2022/04/13 09:51:11;;;;;;;;;;;24.80;34.60;;;;;;1564020;74;805;-70
2022/04/13 09:53:13;;;;;;;;;;;24.70;34.40;;;;;;1565124;74;728;-68
2022/04/13 09:55:15;;;;;;;;;;;24.80;34.40;;;;;;1558278;75;878;-67
2022/04/13 09:57:23;;;;;;;;;;;24.60;34.50;;;;;;1539646;76;936;-62
2022/04/13 09:59:32;;;;;;;;;;;24.70;34.70;;;;;;1565547;74;1908;-63
2022/04/13 10:01:39;;;;;;;;;;;24.60;34.60;;;;;;1562281;75;970;-65
2022/04/13 10:03:37;;;;;;;;;;;24.60;34.50;;;;;;1558925;76;1572;-65
2022/04/13 10:05:41;;;;;;;;;;;24.60;34.50;;;;;;1563259;74;732;-63
2022/04/13 10:07:43;;;;;;;;;;;24.60;34.70;;;;;;1554296;74;921;-64
2022/04/13 10:09:45;;;;;;;;;;;24.60;34.90;;;;;;1573604;74;999;-63
2022/04/13 10:12:01;;;;;;;;;;;24.60;35.10;;;;;;1572190;74;920;-64
2022/04/13 10:14:03;;;;;;;;;;;24.50;35.10;;;;;;1565646;74;882;-63
2022/04/13 10:16:09;;;;;;;;;;;24.60;35.00;;;;;;1570807;74;821;-69
2022/04/13 10:18:12;;;;;;;;;;;24.60;34.90;;;;;;1562603;74;1932;-63
2022/04/13 10:20:14;;;;;;;;;;;24.50;33.80;;;;;;1569955;74;957;-65
2022/04/13 10:22:16;;;;;;;;;;;24.50;34.80;;;;;;1555227;74;761;-59
2022/04/13 10:24:28;;;;;;;;;;;24.40;34.70;;;;;;1560633;74;780;-59
2022/04/13 10:26:30;;;;;;;;;;;24.50;34.80;;;;;;1562427;74;732;-59
2022/04/13 10:28:32;;;;;;;;;;;24.50;34.90;;;;;;1566568;74;793;-59
2022/04/13 10:30:37;;;;;;;;;;;24.40;33.80;;;;;;1562457;74;777;-60
2022/04/13 10:32:39;;;;;;;;;;;24.30;34.60;;;;;;1542236;74;697;-68
2022/04/13 10:34:43;;;;;;;;;;;24.30;34.60;;;;;;1556128;74;886;-63
2022/04/13 10:36:44;;;;;;;;;;;24.20;34.10;;;;;;1566359;74;996;-66
2022/04/13 10:38:47;;;;;;;;;;;24.20;34.50;;;;;;1559810;74;1943;-56
2022/04/13 10:40:49;;;;;;;;;;;24.10;33.60;;;;;;1573017;74;703;-63
2022/04/13 10:42:52;;;;;;;;;;;24.10;34.00;;;;;;1553986;76;977;-66
2022/04/13 10:44:54;;;;;;;;;;;24.10;34.70;;;;;;1556864;74;751;-62
2022/04/13 10:46:56;;;;;;;;;;;24.00;34.10;;;;;;1554829;74;700;-66
2022/04/13 10:48:59;;;;;;;;;;;24.00;34.40;;;;;;1560272;74;736;-66
2022/04/13 10:51:02;;;;;;;;;;;24.00;34.80;;;;;;1555969;74;803;-66
2022/04/13 10:53:06;;;;;;;;;;;24.10;34.90;;;;;;1559420;75;1056;-66
2022/04/13 10:55:09;;;;;;;;;;;24.00;34.50;;;;;;1557697;75;732;-66
2022/04/13 10:57:10;;;;;;;;;;;24.00;34.50;;;;;;1551026;74;742;-65
2022/04/13 10:59:17;;;;;;;;;;;23.90;33.90;;;;;;1560013;74;1954;-66
2022/04/13 11:01:19;;;;;;;;;;;24.00;34.70;;;;;;1564455;74;1714;-66
2022/04/13 11:03:22;;;;;;;;;;;24.00;34.30;;;;;;1554457;74;747;-66
2022/04/13 11:05:27;;;;;;;;;;;23.90;34.30;;;;;;1562380;74;867;-67
2022/04/13 11:07:29;;;;;;;;;;;23.80;34.50;;;;;;1569031;74;763;-67
2022/04/13 11:11:35;;;;;;;;;;;23.80;34.50;;;;;;1500555;78;1225;-60
2022/04/13 11:13:37;;;;;;;;;;;23.80;33.90;;;;;;1498388;78;797;-61
2022/04/13 11:15:42;;;;;;;;;;;23.70;33.60;;;;;;1499610;78;689;-60
2022/04/13 11:17:45;;;;;;;;;;;23.70;34.50;;;;;;1504144;78;904;-59
2022/04/13 11:19:47;;;;;;;;;;;23.70;34.40;;;;;;1498767;78;1916;-60
2022/04/13 11:21:54;;;;;;;;;;;23.70;33.40;;;;;;1507174;78;1142;-60
2022/04/13 11:23:56;;;;;;;;;;;23.60;32.60;;;;;;1513230;78;950;-60
2022/04/13 11:26:01;;;;;;;;;;;23.50;33.90;;;;;;1504580;78;673;-62
2022/04/13 11:28:01;;;;;;;;;;;23.60;33.60;;;;;;1505160;78;1677;-62
2022/04/13 11:30:03;;;;;;;;;;;23.50;33.50;;;;;;1513312;78;891;-61
2022/04/13 11:32:09;;;;;;;;;;;23.50;34.10;;;;;;1501258;78;1198;-60
2022/04/13 11:34:10;;;;;;;;;;;23.40;33.40;;;;;;1505047;78;2023;-62
2022/04/13 11:36:12;;;;;;;;;;;23.30;34.00;;;;;;1510055;78;741;-59
2022/04/13 11:38:14;;;;;;;;;;;23.30;33.60;;;;;;1505899;78;1939;-59
2022/04/13 11:40:21;;;;;;;;;;;23.30;33.90;;;;;;1507559;78;1384;-60
2022/04/13 11:42:32;;;;;;;;;;;23.30;33.10;;;;;;1502567;78;647;-62
2022/04/13 11:44:49;;;;;;;;;;;23.30;34.20;;;;;;1500299;78;692;-59
2022/04/13 11:46:51;;;;;;;;;;;23.20;33.60;;;;;;1490333;78;701;-61
2022/04/13 11:48:53;;;;;;;;;;;23.30;34.20;;;;;;1495713;78;1251;-59
2022/04/13 11:50:56;;;;;;;;;;;23.40;34.00;;;;;;1496427;78;1120;-59
2022/04/13 11:53:05;;;;;;;;;;;23.40;34.20;;;;;;1495970;78;1724;-62
2022/04/13 11:55:18;;;;;;;;;;;23.30;34.20;;;;;;1497698;78;696;-61
2022/04/13 11:57:20;;;;;;;;;;;23.30;33.90;;;;;;1499626;78;695;-61
2022/04/13 11:59:39;;;;;;;;;;;23.30;34.20;;;;;;1501197;78;1939;-59
2022/04/13 12:01:43;;;;;;;;;;;23.20;34.40;;;;;;1503825;78;1188;-60
2022/04/13 12:03:45;;;;;;;;;;;23.30;34.40;;;;;;1498982;78;1931;-63
2022/04/13 12:05:50;;;;;;;;;;;23.30;34.50;;;;;;1509429;78;730;-59
2022/04/13 12:07:52;;;;;;;;;;;23.10;34.30;;;;;;1501105;78;969;-61
2022/04/13 12:09:54;;;;;;;;;;;23.20;34.90;;;;;;1498090;78;697;-63
2022/04/13 12:11:56;;;;;;;;;;;23.20;34.80;;;;;;1501004;78;1073;-61
2022/04/13 12:13:58;;;;;;;;;;;23.10;33.70;;;;;;1498952;78;719;-60